sensor_id;sensor_type;location;lat;lon;timestamp;pressure;altitude;pressure_sealevel;temperature;humidity
56070;BME280;41944;52.078;-0.058;2023-01-25T00:01:46;103529.61;;;-2.86;100.00
56070;BME280;41944;52.078;-0.058;2023-01-25T00:04:14;103527.35;;;-2.90;100.00
56070;BME280;41944;52.078;-0.058;2023-01-25T00:06:41;103521.86;;;-2.93;100.00
56070;BME280;41944;52.078;-0.058;2023-01-25T00:09:09;103516.81;;;-2.98;100.00
56070;BME280;41944;52.078;-0.058;2023-01-25T00:11:36;103512.18;;;-3.05;100.00
56070;BME280;41944;52.078;-0.058;2023-01-25T00:14:04;103507.05;;;-3.05;100.00
56070;BME280;41944;52.078;-0.058;2023-01-25T00:16:31;103507.77;;;-3.03;100.00
56070;BME280;41944;52.078;-0.058;2023-01-25T00:18:59;103507.35;;;-3.08;100.00
56070;BME280;41944;52.078;-0.058;2023-01-25T00:21:26;103504.22;;;-3.09;100.00
56070;BME280;41944;52.078;-0.058;2023-01-25T00:23:53;103501.17;;;-3.07;100.00
56070;BME280;41944;52.078;-0.058;2023-01-25T00:26:20;103498.15;;;-3.07;100.00
56070;BME280;41944;52.078;-0.058;2023-01-25T00:28:48;103497.52;;;-3.09;100.00
56070;BME280;41944;52.078;-0.058;2023-01-25T00:31:20;103498.01;;;-3.10;100.00
56070;BME280;41944;52.078;-0.058;2023-01-25T00:33:55;103498.09;;;-3.16;100.00
56070;BME280;41944;52.078;-0.058;2023-01-25T00:36:32;103497.43;;;-3.18;100.00
56070;BME280;41944;52.078;-0.058;2023-01-25T00:38:59;103495.61;;;-3.20;100.00
56070;BME280;41944;52.078;-0.058;2023-01-25T00:41:26;103489.32;;;-3.25;100.00
56070;BME280;41944;52.078;-0.058;2023-01-25T00:43:53;103484.44;;;-3.29;100.00
56070;BME280;41944;52.078;-0.058;2023-01-25T00:46:20;103480.50;;;-3.23;100.00
56070;BME280;41944;52.078;-0.058;2023-01-25T00:48:48;103480.94;;;-3.31;100.00
56070;BME280;41944;52.078;-0.058;2023-01-25T00:51:15;103477.63;;;-3.30;100.00
56070;BME280;41944;52.078;-0.058;2023-01-25T00:53:42;103472.05;;;-3.31;100.00
56070;BME280;41944;52.078;-0.058;2023-01-25T00:56:09;103468.71;;;-3.26;100.00
56070;BME280;41944;52.078;-0.058;2023-01-25T00:58:36;103467.82;;;-3.29;100.00
56070;BME280;41944;52.078;-0.058;2023-01-25T01:01:03;103471.13;;;-3.33;100.00
56070;BME280;41944;52.078;-0.058;2023-01-25T01:03:31;103467.48;;;-3.36;100.00
56070;BME280;41944;52.078;-0.058;2023-01-25T01:06:00;103459.36;;;-3.39;100.00
56070;BME280;41944;52.078;-0.058;2023-01-25T01:08:27;103459.46;;;-3.24;100.00
56070;BME280;41944;52.078;-0.058;2023-01-25T01:10:59;103460.48;;;-3.38;100.00
56070;BME280;41944;52.078;-0.058;2023-01-25T01:13:27;103460.66;;;-3.46;100.00
56070;BME280;41944;52.078;-0.058;2023-01-25T01:15:55;103451.57;;;-3.44;100.00
56070;BME280;41944;52.078;-0.058;2023-01-25T01:18:22;103451.68;;;-3.44;100.00
56070;BME280;41944;52.078;-0.058;2023-01-25T01:20:50;103447.21;;;-3.49;100.00
56070;BME280;41944;52.078;-0.058;2023-01-25T01:23:18;103444.81;;;-3.38;100.00
56070;BME280;41944;52.078;-0.058;2023-01-25T01:25:45;103439.91;;;-3.42;100.00
56070;BME280;41944;52.078;-0.058;2023-01-25T01:28:13;103442.23;;;-3.42;100.00
56070;BME280;41944;52.078;-0.058;2023-01-25T01:30:40;103439.43;;;-3.40;100.00
56070;BME280;41944;52.078;-0.058;2023-01-25T01:33:07;103435.91;;;-3.44;100.00
56070;BME280;41944;52.078;-0.058;2023-01-25T01:35:34;103431.04;;;-3.38;100.00
56070;BME280;41944;52.078;-0.058;2023-01-25T01:38:01;103428.90;;;-3.31;100.00
56070;BME280;41944;52.078;-0.058;2023-01-25T01:40:29;103428.00;;;-3.41;100.00
56070;BME280;41944;52.078;-0.058;2023-01-25T01:42:58;103428.02;;;-3.42;100.00
56070;BME280;41944;52.078;-0.058;2023-01-25T01:45:59;103429.16;;;-3.41;100.00
56070;BME280;41944;52.078;-0.058;2023-01-25T01:48:33;103433.73;;;-3.45;100.00
56070;BME280;41944;52.078;-0.058;2023-01-25T01:51:09;103433.17;;;-3.40;100.00
56070;BME280;41944;52.078;-0.058;2023-01-25T01:53:39;103429.37;;;-3.43;100.00
56070;BME280;41944;52.078;-0.058;2023-01-25T01:56:12;103430.99;;;-3.41;100.00
56070;BME280;41944;52.078;-0.058;2023-01-25T01:58:43;103435.38;;;-3.30;100.00
56070;BME280;41944;52.078;-0.058;2023-01-25T02:01:10;103434.69;;;-3.35;100.00
56070;BME280;41944;52.078;-0.058;2023-01-25T02:03:38;103434.45;;;-3.36;100.00
56070;BME280;41944;52.078;-0.058;2023-01-25T02:06:11;103434.54;;;-3.37;100.00
56070;BME280;41944;52.078;-0.058;2023-01-25T02:08:40;103440.44;;;-3.20;100.00
56070;BME280;41944;52.078;-0.058;2023-01-25T02:11:08;103441.86;;;-3.04;100.00
56070;BME280;41944;52.078;-0.058;2023-01-25T02:13:36;103440.06;;;-2.87;100.00
56070;BME280;41944;52.078;-0.058;2023-01-25T02:16:04;103436.64;;;-2.65;100.00
56070;BME280;41944;52.078;-0.058;2023-01-25T02:18:32;103431.66;;;-2.49;100.00
56070;BME280;41944;52.078;-0.058;2023-01-25T02:21:00;103428.07;;;-2.27;100.00
56070;BME280;41944;52.078;-0.058;2023-01-25T02:23:31;103426.81;;;-2.20;100.00
56070;BME280;41944;52.078;-0.058;2023-01-25T02:26:02;103428.51;;;-2.10;100.00
56070;BME280;41944;52.078;-0.058;2023-01-25T02:28:34;103430.67;;;-1.96;100.00
56070;BME280;41944;52.078;-0.058;2023-01-25T02:31:02;103429.17;;;-1.81;100.00
56070;BME280;41944;52.078;-0.058;2023-01-25T02:33:29;103422.02;;;-1.71;100.00
56070;BME280;41944;52.078;-0.058;2023-01-25T02:36:00;103424.07;;;-1.62;100.00
56070;BME280;41944;52.078;-0.058;2023-01-25T02:38:46;103424.18;;;-1.51;100.00
56070;BME280;41944;52.078;-0.058;2023-01-25T02:41:17;103427.51;;;-1.27;100.00
56070;BME280;41944;52.078;-0.058;2023-01-25T02:43:47;103430.83;;;-1.25;100.00
56070;BME280;41944;52.078;-0.058;2023-01-25T02:46:18;103429.09;;;-1.19;100.00
56070;BME280;41944;52.078;-0.058;2023-01-25T02:48:46;103428.87;;;-1.12;100.00
56070;BME280;41944;52.078;-0.058;2023-01-25T02:51:14;103430.47;;;-1.06;100.00
56070;BME280;41944;52.078;-0.058;2023-01-25T02:53:41;103428.04;;;-0.96;100.00
56070;BME280;41944;52.078;-0.058;2023-01-25T02:56:09;103428.21;;;-0.88;100.00
56070;BME280;41944;52.078;-0.058;2023-01-25T02:58:35;103424.06;;;-0.80;100.00
56070;BME280;41944;52.078;-0.058;2023-01-25T03:01:03;103421.55;;;-0.66;100.00
56070;BME280;41944;52.078;-0.058;2023-01-25T03:03:30;103420.75;;;-0.63;100.00
56070;BME280;41944;52.078;-0.058;2023-01-25T03:05:57;103415.44;;;-0.27;100.00
56070;BME280;41944;52.078;-0.058;2023-01-25T03:08:24;103408.48;;;-0.23;100.00
56070;BME280;41944;52.078;-0.058;2023-01-25T03:10:55;103406.10;;;-0.26;100.00
56070;BME280;41944;52.078;-0.058;2023-01-25T03:13:22;103406.55;;;-0.26;100.00
56070;BME280;41944;52.078;-0.058;2023-01-25T03:15:50;103405.64;;;-0.10;100.00
56070;BME280;41944;52.078;-0.058;2023-01-25T03:18:17;103400.41;;;0.09;100.00
56070;BME280;41944;52.078;-0.058;2023-01-25T03:20:44;103396.88;;;0.15;100.00
56070;BME280;41944;52.078;-0.058;2023-01-25T03:23:11;103397.56;;;0.40;100.00
56070;BME280;41944;52.078;-0.058;2023-01-25T03:25:39;103394.55;;;0.24;100.00
56070;BME280;41944;52.078;-0.058;2023-01-25T03:28:06;103393.83;;;0.36;100.00
56070;BME280;41944;52.078;-0.058;2023-01-25T03:30:34;103390.85;;;0.40;100.00
56070;BME280;41944;52.078;-0.058;2023-01-25T03:33:01;103391.76;;;0.50;100.00
56070;BME280;41944;52.078;-0.058;2023-01-25T03:35:28;103393.24;;;0.44;100.00
56070;BME280;41944;52.078;-0.058;2023-01-25T03:37:56;103390.77;;;0.42;100.00
56070;BME280;41944;52.078;-0.058;2023-01-25T03:40:23;103388.84;;;0.40;100.00
56070;BME280;41944;52.078;-0.058;2023-01-25T03:42:50;103389.68;;;0.62;100.00
56070;BME280;41944;52.078;-0.058;2023-01-25T03:45:17;103389.18;;;0.69;100.00
56070;BME280;41944;52.078;-0.058;2023-01-25T03:47:45;103387.34;;;0.55;100.00
56070;BME280;41944;52.078;-0.058;2023-01-25T03:50:11;103380.10;;;0.70;100.00
56070;BME280;41944;52.078;-0.058;2023-01-25T03:52:39;103376.06;;;0.61;100.00
56070;BME280;41944;52.078;-0.058;2023-01-25T03:55:07;103374.77;;;0.57;100.00
56070;BME280;41944;52.078;-0.058;2023-01-25T03:57:34;103375.27;;;0.73;100.00
56070;BME280;41944;52.078;-0.058;2023-01-25T04:00:02;103374.33;;;0.65;100.00
56070;BME280;41944;52.078;-0.058;2023-01-25T04:02:30;103370.81;;;0.68;100.00
56070;BME280;41944;52.078;-0.058;2023-01-25T04:04:56;103365.47;;;0.70;100.00
56070;BME280;41944;52.078;-0.058;2023-01-25T04:07:24;103366.72;;;0.70;100.00
56070;BME280;41944;52.078;-0.058;2023-01-25T04:09:51;103370.92;;;0.76;100.00
56070;BME280;41944;52.078;-0.058;2023-01-25T04:12:18;103373.15;;;0.89;100.00
56070;BME280;41944;52.078;-0.058;2023-01-25T04:14:45;103378.34;;;0.84;100.00
56070;BME280;41944;52.078;-0.058;2023-01-25T04:17:13;103375.87;;;0.86;100.00
56070;BME280;41944;52.078;-0.058;2023-01-25T04:19:40;103379.76;;;0.85;100.00
56070;BME280;41944;52.078;-0.058;2023-01-25T04:22:08;103382.31;;;0.93;100.00
56070;BME280;41944;52.078;-0.058;2023-01-25T04:24:35;103380.87;;;0.95;100.00
56070;BME280;41944;52.078;-0.058;2023-01-25T04:27:02;103378.66;;;1.00;100.00
56070;BME280;41944;52.078;-0.058;2023-01-25T04:29:29;103378.23;;;0.92;100.00
56070;BME280;41944;52.078;-0.058;2023-01-25T04:31:57;103375.41;;;1.00;100.00
56070;BME280;41944;52.078;-0.058;2023-01-25T04:34:24;103379.73;;;0.99;100.00
56070;BME280;41944;52.078;-0.058;2023-01-25T04:36:51;103379.76;;;1.18;100.00
56070;BME280;41944;52.078;-0.058;2023-01-25T04:39:18;103384.00;;;1.06;100.00
56070;BME280;41944;52.078;-0.058;2023-01-25T04:41:46;103384.36;;;1.14;100.00
56070;BME280;41944;52.078;-0.058;2023-01-25T04:44:12;103384.12;;;1.12;100.00
56070;BME280;41944;52.078;-0.058;2023-01-25T04:46:40;103383.20;;;1.20;100.00
56070;BME280;41944;52.078;-0.058;2023-01-25T04:49:07;103381.80;;;1.30;100.00
56070;BME280;41944;52.078;-0.058;2023-01-25T04:51:34;103379.65;;;1.18;100.00
56070;BME280;41944;52.078;-0.058;2023-01-25T04:54:01;103378.53;;;1.38;100.00
56070;BME280;41944;52.078;-0.058;2023-01-25T04:56:28;103379.67;;;1.33;100.00
56070;BME280;41944;52.078;-0.058;2023-01-25T04:58:55;103377.72;;;1.43;100.00
56070;BME280;41944;52.078;-0.058;2023-01-25T05:01:23;103379.73;;;1.39;100.00
56070;BME280;41944;52.078;-0.058;2023-01-25T05:03:50;103378.47;;;1.42;100.00
56070;BME280;41944;52.078;-0.058;2023-01-25T05:06:17;103374.31;;;1.48;100.00
56070;BME280;41944;52.078;-0.058;2023-01-25T05:08:43;103370.43;;;1.45;100.00
56070;BME280;41944;52.078;-0.058;2023-01-25T05:11:11;103373.01;;;1.43;100.00
56070;BME280;41944;52.078;-0.058;2023-01-25T05:13:38;103377.96;;;1.26;100.00
56070;BME280;41944;52.078;-0.058;2023-01-25T05:16:05;103373.83;;;1.30;100.00
56070;BME280;41944;52.078;-0.058;2023-01-25T05:18:32;103372.38;;;1.40;100.00
56070;BME280;41944;52.078;-0.058;2023-01-25T05:20:59;103371.63;;;1.42;100.00
56070;BME280;41944;52.078;-0.058;2023-01-25T05:23:26;103373.81;;;1.38;100.00
56070;BME280;41944;52.078;-0.058;2023-01-25T05:25:52;103370.31;;;1.59;100.00
56070;BME280;41944;52.078;-0.058;2023-01-25T05:28:19;103370.63;;;1.54;100.00
56070;BME280;41944;52.078;-0.058;2023-01-25T05:30:46;103372.54;;;1.50;100.00
56070;BME280;41944;52.078;-0.058;2023-01-25T05:33:13;103371.17;;;1.59;100.00
56070;BME280;41944;52.078;-0.058;2023-01-25T05:35:41;103369.67;;;1.41;100.00
56070;BME280;41944;52.078;-0.058;2023-01-25T05:38:09;103366.35;;;1.34;100.00
56070;BME280;41944;52.078;-0.058;2023-01-25T05:40:36;103366.15;;;1.31;100.00
56070;BME280;41944;52.078;-0.058;2023-01-25T05:43:03;103366.42;;;1.31;100.00
56070;BME280;41944;52.078;-0.058;2023-01-25T05:45:30;103360.14;;;1.36;100.00
56070;BME280;41944;52.078;-0.058;2023-01-25T05:47:58;103355.91;;;1.41;100.00
56070;BME280;41944;52.078;-0.058;2023-01-25T05:50:26;103352.93;;;1.46;100.00
56070;BME280;41944;52.078;-0.058;2023-01-25T05:52:53;103351.98;;;1.49;100.00
56070;BME280;41944;52.078;-0.058;2023-01-25T05:55:20;103346.72;;;1.49;100.00
56070;BME280;41944;52.078;-0.058;2023-01-25T05:57:46;103344.80;;;1.57;100.00
56070;BME280;41944;52.078;-0.058;2023-01-25T06:00:14;103337.35;;;1.50;100.00
56070;BME280;41944;52.078;-0.058;2023-01-25T06:02:42;103335.75;;;1.58;100.00
56070;BME280;41944;52.078;-0.058;2023-01-25T06:05:09;103335.53;;;1.68;100.00
56070;BME280;41944;52.078;-0.058;2023-01-25T06:07:37;103334.72;;;1.69;100.00
56070;BME280;41944;52.078;-0.058;2023-01-25T06:10:04;103335.71;;;1.71;100.00
56070;BME280;41944;52.078;-0.058;2023-01-25T06:12:32;103330.59;;;1.62;100.00
56070;BME280;41944;52.078;-0.058;2023-01-25T06:14:59;103327.82;;;1.73;100.00
56070;BME280;41944;52.078;-0.058;2023-01-25T06:17:26;103324.22;;;1.71;100.00
56070;BME280;41944;52.078;-0.058;2023-01-25T06:19:53;103324.08;;;1.51;100.00
56070;BME280;41944;52.078;-0.058;2023-01-25T06:22:19;103315.28;;;1.61;100.00
56070;BME280;41944;52.078;-0.058;2023-01-25T06:24:47;103310.52;;;1.62;100.00
56070;BME280;41944;52.078;-0.058;2023-01-25T06:27:14;103308.17;;;1.55;100.00
56070;BME280;41944;52.078;-0.058;2023-01-25T06:29:41;103304.26;;;1.59;100.00
56070;BME280;41944;52.078;-0.058;2023-01-25T06:32:08;103300.50;;;1.63;100.00
56070;BME280;41944;52.078;-0.058;2023-01-25T06:34:35;103296.12;;;1.59;100.00
56070;BME280;41944;52.078;-0.058;2023-01-25T06:37:02;103293.95;;;1.65;100.00
56070;BME280;41944;52.078;-0.058;2023-01-25T06:39:29;103288.05;;;1.48;100.00
56070;BME280;41944;52.078;-0.058;2023-01-25T06:41:56;103285.66;;;1.53;100.00
56070;BME280;41944;52.078;-0.058;2023-01-25T06:44:23;103283.80;;;1.57;100.00
56070;BME280;41944;52.078;-0.058;2023-01-25T06:46:50;103281.74;;;1.70;100.00
56070;BME280;41944;52.078;-0.058;2023-01-25T06:49:17;103285.87;;;1.71;100.00
56070;BME280;41944;52.078;-0.058;2023-01-25T06:51:44;103287.57;;;1.73;100.00
56070;BME280;41944;52.078;-0.058;2023-01-25T06:54:11;103286.10;;;1.72;100.00
56070;BME280;41944;52.078;-0.058;2023-01-25T06:56:39;103281.59;;;1.72;100.00
56070;BME280;41944;52.078;-0.058;2023-01-25T06:59:06;103278.59;;;1.69;100.00
56070;BME280;41944;52.078;-0.058;2023-01-25T07:01:33;103275.65;;;1.62;100.00
56070;BME280;41944;52.078;-0.058;2023-01-25T07:04:00;103273.88;;;1.70;100.00
56070;BME280;41944;52.078;-0.058;2023-01-25T07:06:31;103273.31;;;1.74;100.00
56070;BME280;41944;52.078;-0.058;2023-01-25T07:09:02;103276.20;;;1.76;100.00
56070;BME280;41944;52.078;-0.058;2023-01-25T07:11:29;103273.51;;;1.59;100.00
56070;BME280;41944;52.078;-0.058;2023-01-25T07:13:57;103272.80;;;1.53;100.00
56070;BME280;41944;52.078;-0.058;2023-01-25T07:16:25;103274.00;;;1.60;100.00
56070;BME280;41944;52.078;-0.058;2023-01-25T07:18:53;103277.96;;;1.53;100.00
56070;BME280;41944;52.078;-0.058;2023-01-25T07:21:21;103279.73;;;1.58;100.00
56070;BME280;41944;52.078;-0.058;2023-01-25T07:23:49;103277.33;;;1.62;100.00
56070;BME280;41944;52.078;-0.058;2023-01-25T07:26:18;103279.53;;;1.60;100.00
56070;BME280;41944;52.078;-0.058;2023-01-25T07:28:47;103274.53;;;1.58;100.00
56070;BME280;41944;52.078;-0.058;2023-01-25T07:31:15;103270.86;;;1.66;100.00
56070;BME280;41944;52.078;-0.058;2023-01-25T07:33:46;103264.18;;;1.47;100.00
56070;BME280;41944;52.078;-0.058;2023-01-25T07:36:13;103260.92;;;1.71;100.00
56070;BME280;41944;52.078;-0.058;2023-01-25T07:38:41;103259.09;;;1.94;100.00
56070;BME280;41944;52.078;-0.058;2023-01-25T07:41:07;103256.73;;;1.82;100.00
56070;BME280;41944;52.078;-0.058;2023-01-25T07:43:34;103255.09;;;1.74;100.00
56070;BME280;41944;52.078;-0.058;2023-01-25T07:46:03;103250.82;;;1.76;100.00
56070;BME280;41944;52.078;-0.058;2023-01-25T07:48:31;103246.98;;;1.77;100.00
56070;BME280;41944;52.078;-0.058;2023-01-25T07:50:59;103242.54;;;1.65;100.00
56070;BME280;41944;52.078;-0.058;2023-01-25T07:53:27;103244.01;;;1.72;100.00
56070;BME280;41944;52.078;-0.058;2023-01-25T07:55:57;103238.41;;;1.64;100.00
56070;BME280;41944;52.078;-0.058;2023-01-25T07:58:25;103237.71;;;1.72;100.00
56070;BME280;41944;52.078;-0.058;2023-01-25T08:00:51;103235.82;;;1.87;100.00
56070;BME280;41944;52.078;-0.058;2023-01-25T08:03:19;103236.45;;;1.77;100.00
56070;BME280;41944;52.078;-0.058;2023-01-25T08:05:46;103234.23;;;1.92;100.00
56070;BME280;41944;52.078;-0.058;2023-01-25T08:08:14;103235.78;;;1.89;100.00
56070;BME280;41944;52.078;-0.058;2023-01-25T08:10:41;103236.73;;;1.84;100.00
56070;BME280;41944;52.078;-0.058;2023-01-25T08:13:09;103237.17;;;1.78;100.00
56070;BME280;41944;52.078;-0.058;2023-01-25T08:15:36;103232.68;;;1.81;100.00
56070;BME280;41944;52.078;-0.058;2023-01-25T08:18:03;103235.82;;;1.86;100.00
56070;BME280;41944;52.078;-0.058;2023-01-25T08:20:31;103233.29;;;1.82;100.00
56070;BME280;41944;52.078;-0.058;2023-01-25T08:22:58;103233.33;;;1.95;100.00
56070;BME280;41944;52.078;-0.058;2023-01-25T08:25:25;103232.62;;;1.95;100.00
56070;BME280;41944;52.078;-0.058;2023-01-25T08:27:52;103225.98;;;1.76;100.00
56070;BME280;41944;52.078;-0.058;2023-01-25T08:30:19;103220.73;;;1.93;100.00
56070;BME280;41944;52.078;-0.058;2023-01-25T08:32:46;103214.71;;;2.03;100.00
56070;BME280;41944;52.078;-0.058;2023-01-25T08:35:13;103211.28;;;1.84;100.00
56070;BME280;41944;52.078;-0.058;2023-01-25T08:37:41;103212.86;;;2.01;100.00
56070;BME280;41944;52.078;-0.058;2023-01-25T08:40:09;103210.24;;;1.83;100.00
56070;BME280;41944;52.078;-0.058;2023-01-25T08:42:37;103209.97;;;1.91;100.00
56070;BME280;41944;52.078;-0.058;2023-01-25T08:45:05;103208.13;;;2.00;100.00
56070;BME280;41944;52.078;-0.058;2023-01-25T08:47:33;103202.96;;;1.98;100.00
56070;BME280;41944;52.078;-0.058;2023-01-25T08:50:00;103199.34;;;2.00;100.00
56070;BME280;41944;52.078;-0.058;2023-01-25T08:52:27;103199.30;;;2.03;100.00
56070;BME280;41944;52.078;-0.058;2023-01-25T08:54:54;103192.64;;;2.15;100.00
56070;BME280;41944;52.078;-0.058;2023-01-25T08:57:21;103190.20;;;2.15;100.00
56070;BME280;41944;52.078;-0.058;2023-01-25T08:59:48;103187.79;;;2.01;100.00
56070;BME280;41944;52.078;-0.058;2023-01-25T09:02:14;103188.86;;;1.90;100.00
56070;BME280;41944;52.078;-0.058;2023-01-25T09:04:42;103187.85;;;2.11;100.00
56070;BME280;41944;52.078;-0.058;2023-01-25T09:07:10;103184.80;;;1.91;100.00
56070;BME280;41944;52.078;-0.058;2023-01-25T09:09:36;103175.63;;;2.10;100.00
56070;BME280;41944;52.078;-0.058;2023-01-25T09:12:04;103167.39;;;2.23;100.00
56070;BME280;41944;52.078;-0.058;2023-01-25T09:14:32;103164.98;;;2.31;100.00
56070;BME280;41944;52.078;-0.058;2023-01-25T09:16:59;103160.47;;;2.18;100.00
56070;BME280;41944;52.078;-0.058;2023-01-25T09:19:26;103158.48;;;2.22;100.00
56070;BME280;41944;52.078;-0.058;2023-01-25T09:21:53;103155.06;;;2.21;100.00
56070;BME280;41944;52.078;-0.058;2023-01-25T09:24:20;103151.77;;;2.40;100.00
56070;BME280;41944;52.078;-0.058;2023-01-25T09:26:48;103148.73;;;2.27;100.00
56070;BME280;41944;52.078;-0.058;2023-01-25T09:29:14;103142.48;;;2.40;100.00
56070;BME280;41944;52.078;-0.058;2023-01-25T09:31:42;103140.61;;;2.47;100.00
56070;BME280;41944;52.078;-0.058;2023-01-25T09:34:09;103132.71;;;2.57;100.00
56070;BME280;41944;52.078;-0.058;2023-01-25T09:36:36;103124.51;;;2.40;100.00
56070;BME280;41944;52.078;-0.058;2023-01-25T09:39:04;103107.52;;;2.63;100.00
56070;BME280;41944;52.078;-0.058;2023-01-25T09:41:45;103102.80;;;2.66;100.00
56070;BME280;41944;52.078;-0.058;2023-01-25T09:44:30;103102.92;;;2.46;100.00
56070;BME280;41944;52.078;-0.058;2023-01-25T09:47:07;103100.82;;;2.53;100.00
56070;BME280;41944;52.078;-0.058;2023-01-25T09:49:57;103097.68;;;2.59;100.00
56070;BME280;41944;52.078;-0.058;2023-01-25T09:52:37;103096.40;;;2.68;100.00
56070;BME280;41944;52.078;-0.058;2023-01-25T09:55:15;103088.53;;;2.78;100.00
56070;BME280;41944;52.078;-0.058;2023-01-25T09:57:45;103080.38;;;2.75;100.00
56070;BME280;41944;52.078;-0.058;2023-01-25T10:00:18;103071.91;;;2.77;100.00
56070;BME280;41944;52.078;-0.058;2023-01-25T10:02:48;103070.61;;;2.94;100.00
56070;BME280;41944;52.078;-0.058;2023-01-25T10:05:20;103068.54;;;2.82;100.00
56070;BME280;41944;52.078;-0.058;2023-01-25T10:07:55;103070.88;;;2.82;100.00
56070;BME280;41944;52.078;-0.058;2023-01-25T10:10:31;103070.98;;;2.69;100.00
56070;BME280;41944;52.078;-0.058;2023-01-25T10:12:59;103070.34;;;2.86;100.00
56070;BME280;41944;52.078;-0.058;2023-01-25T10:15:29;103064.80;;;2.94;100.00
56070;BME280;41944;52.078;-0.058;2023-01-25T10:18:00;103060.07;;;2.94;100.00
56070;BME280;41944;52.078;-0.058;2023-01-25T10:20:37;103057.68;;;3.06;100.00
56070;BME280;41944;52.078;-0.058;2023-01-25T10:23:23;103055.65;;;3.24;100.00
56070;BME280;41944;52.078;-0.058;2023-01-25T10:25:56;103051.61;;;3.33;100.00
56070;BME280;41944;52.078;-0.058;2023-01-25T10:28:45;103047.70;;;3.31;100.00
56070;BME280;41944;52.078;-0.058;2023-01-25T10:31:17;103038.70;;;3.43;100.00
56070;BME280;41944;52.078;-0.058;2023-01-25T10:33:46;103033.49;;;3.38;100.00
56070;BME280;41944;52.078;-0.058;2023-01-25T10:36:16;103028.37;;;3.43;100.00
56070;BME280;41944;52.078;-0.058;2023-01-25T10:38:45;103025.54;;;3.45;100.00
56070;BME280;41944;52.078;-0.058;2023-01-25T10:41:17;103018.43;;;3.56;100.00
56070;BME280;41944;52.078;-0.058;2023-01-25T10:43:46;103010.37;;;3.73;100.00
56070;BME280;41944;52.078;-0.058;2023-01-25T10:46:18;103003.64;;;3.71;100.00
56070;BME280;41944;52.078;-0.058;2023-01-25T10:48:47;103000.67;;;3.90;100.00
56070;BME280;41944;52.078;-0.058;2023-01-25T10:51:31;102997.24;;;3.90;100.00
56070;BME280;41944;52.078;-0.058;2023-01-25T10:54:01;102993.93;;;3.98;100.00
56070;BME280;41944;52.078;-0.058;2023-01-25T10:56:29;102984.83;;;3.89;100.00
56070;BME280;41944;52.078;-0.058;2023-01-25T10:59:29;102975.21;;;3.97;100.00
56070;BME280;41944;52.078;-0.058;2023-01-25T11:02:24;102969.01;;;4.14;100.00
56070;BME280;41944;52.078;-0.058;2023-01-25T11:04:58;102970.11;;;4.21;99.85
56070;BME280;41944;52.078;-0.058;2023-01-25T11:07:42;102974.09;;;4.12;100.00
56070;BME280;41944;52.078;-0.058;2023-01-25T11:10:27;102975.34;;;4.28;100.00
56070;BME280;41944;52.078;-0.058;2023-01-25T11:13:17;102965.53;;;4.29;100.00
56070;BME280;41944;52.078;-0.058;2023-01-25T11:15:46;102956.71;;;4.37;99.92
56070;BME280;41944;52.078;-0.058;2023-01-25T11:18:19;102941.42;;;4.42;100.00
56070;BME280;41944;52.078;-0.058;2023-01-25T11:20:47;102935.21;;;4.49;99.75
56070;BME280;41944;52.078;-0.058;2023-01-25T11:23:22;102940.25;;;4.52;99.57
56070;BME280;41944;52.078;-0.058;2023-01-25T11:25:49;102938.19;;;4.51;99.72
56070;BME280;41944;52.078;-0.058;2023-01-25T11:28:18;102937.44;;;4.56;98.95
56070;BME280;41944;52.078;-0.058;2023-01-25T11:30:46;102933.59;;;4.53;98.65
56070;BME280;41944;52.078;-0.058;2023-01-25T11:33:16;102933.77;;;4.45;99.28
56070;BME280;41944;52.078;-0.058;2023-01-25T11:36:00;102926.92;;;4.50;99.21
56070;BME280;41944;52.078;-0.058;2023-01-25T11:38:31;102911.01;;;4.68;97.60
56070;BME280;41944;52.078;-0.058;2023-01-25T11:41:05;102908.42;;;4.66;97.19
56070;BME280;41944;52.078;-0.058;2023-01-25T11:43:54;102908.05;;;4.75;95.92
56070;BME280;41944;52.078;-0.058;2023-01-25T11:46:34;102907.44;;;4.77;96.07
56070;BME280;41944;52.078;-0.058;2023-01-25T11:49:14;102917.00;;;4.74;96.81
56070;BME280;41944;52.078;-0.058;2023-01-25T11:51:50;102915.24;;;4.76;97.72
56070;BME280;41944;52.078;-0.058;2023-01-25T11:54:35;102908.15;;;4.82;97.88
56070;BME280;41944;52.078;-0.058;2023-01-25T11:57:16;102905.61;;;4.74;98.88
56070;BME280;41944;52.078;-0.058;2023-01-25T11:59:59;102906.10;;;4.74;99.63
56070;BME280;41944;52.078;-0.058;2023-01-25T12:02:46;102912.10;;;4.79;99.44
56070;BME280;41944;52.078;-0.058;2023-01-25T12:05:27;102915.36;;;4.86;99.07
56070;BME280;41944;52.078;-0.058;2023-01-25T12:08:09;102914.60;;;4.85;99.19
56070;BME280;41944;52.078;-0.058;2023-01-25T12:10:45;102919.09;;;4.78;98.82
56070;BME280;41944;52.078;-0.058;2023-01-25T12:13:23;102916.83;;;4.69;99.02
56070;BME280;41944;52.078;-0.058;2023-01-25T12:16:08;102915.79;;;4.69;98.62
56070;BME280;41944;52.078;-0.058;2023-01-25T12:19:08;102911.50;;;4.68;97.95
56070;BME280;41944;52.078;-0.058;2023-01-25T12:21:50;102920.32;;;4.63;98.49
56070;BME280;41944;52.078;-0.058;2023-01-25T12:24:34;102934.19;;;4.66;98.83
56070;BME280;41944;52.078;-0.058;2023-01-25T12:27:13;102935.81;;;4.55;99.49
56070;BME280;41944;52.078;-0.058;2023-01-25T12:29:44;102937.21;;;4.57;99.56
56070;BME280;41944;52.078;-0.058;2023-01-25T12:32:17;102933.91;;;4.54;100.00
56070;BME280;41944;52.078;-0.058;2023-01-25T12:34:51;102930.95;;;4.56;100.00
56070;BME280;41944;52.078;-0.058;2023-01-25T12:37:29;102929.84;;;4.52;100.00
56070;BME280;41944;52.078;-0.058;2023-01-25T12:40:02;102919.05;;;4.47;100.00
56070;BME280;41944;52.078;-0.058;2023-01-25T12:42:34;102908.36;;;4.60;100.00
56070;BME280;41944;52.078;-0.058;2023-01-25T12:45:09;102912.22;;;4.49;100.00
56070;BME280;41944;52.078;-0.058;2023-01-25T12:47:40;102908.98;;;4.58;100.00
56070;BME280;41944;52.078;-0.058;2023-01-25T12:50:16;102901.19;;;4.70;100.00
56070;BME280;41944;52.078;-0.058;2023-01-25T12:52:46;102898.74;;;4.57;100.00